createdAt,value
2022-12-26T00:01:50.403Z,18.90
2022-12-26T00:04:48.559Z,19.80
2022-12-26T00:07:09.003Z,19.15
2022-12-26T00:09:37.173Z,19.88
2022-12-26T00:12:05.204Z,19.88
2022-12-26T00:14:32.975Z,18.75
2022-12-26T00:17:00.835Z,21.30
2022-12-26T00:19:29.218Z,19.27
2022-12-26T00:21:57.691Z,20.27
2022-12-26T00:24:25.515Z,19.42
2022-12-26T00:26:53.422Z,20.17
2022-12-26T00:29:22.912Z,20.70
2022-12-26T00:31:53.738Z,19.13
2022-12-26T00:34:21.819Z,21.80
2022-12-26T00:36:50.186Z,21.05
2022-12-26T00:39:18.019Z,19.70
2022-12-26T00:41:45.925Z,21.00
2022-12-26T00:44:13.740Z,21.15
2022-12-26T00:46:41.767Z,20.17
2022-12-26T00:49:10.888Z,22.75
2022-12-26T00:51:40.091Z,21.10
2022-12-26T00:54:08.085Z,21.63
2022-12-26T00:56:36.033Z,22.42
2022-12-26T00:59:04.022Z,21.90
2022-12-26T01:01:32.792Z,21.00
2022-12-26T01:04:01.164Z,22.77
2022-12-26T01:06:29.016Z,20.67
2022-12-26T01:08:57.057Z,21.85
2022-12-26T01:11:40.449Z,21.80
2022-12-26T01:14:13.184Z,22.38
2022-12-26T01:16:42.859Z,20.30
2022-12-26T01:19:12.125Z,20.25
2022-12-26T01:21:41.050Z,20.30
2022-12-26T01:24:09.025Z,21.17
2022-12-26T01:26:37.247Z,18.67
2022-12-26T01:29:05.089Z,19.67
2022-12-26T01:31:32.967Z,19.83
2022-12-26T01:34:01.011Z,19.77
2022-12-26T01:36:29.047Z,20.05
2022-12-26T01:38:56.994Z,19.92
2022-12-26T01:41:24.864Z,21.35
2022-12-26T01:44:02.165Z,18.92
2022-12-26T01:46:42.868Z,20.05
2022-12-26T01:49:19.802Z,19.67
2022-12-26T01:52:00.445Z,20.52
2022-12-26T01:54:40.501Z,17.45
2022-12-26T01:57:17.718Z,19.38
2022-12-26T01:59:46.432Z,19.00
2022-12-26T02:02:15.868Z,17.70
2022-12-26T02:05:06.086Z,17.88
2022-12-26T02:07:40.709Z,17.17
2022-12-26T02:10:18.401Z,15.80
2022-12-26T02:12:47.414Z,17.08
2022-12-26T02:15:17.454Z,14.57
2022-12-26T02:17:50.579Z,15.35
2022-12-26T02:20:28.104Z,15.20
2022-12-26T02:23:40.337Z,15.40
2022-12-26T02:26:26.638Z,14.10
2022-12-26T02:29:22.054Z,13.30
2022-12-26T02:32:08.489Z,11.80
2022-12-26T02:34:57.662Z,10.93
2022-12-26T02:37:54.145Z,11.98
2022-12-26T02:40:28.160Z,11.23
2022-12-26T02:43:06.876Z,11.68
2022-12-26T02:46:14.966Z,11.10
2022-12-26T02:48:52.127Z,10.48
2022-12-26T02:52:04.220Z,10.13
2022-12-26T02:55:03.042Z,12.82
2022-12-26T02:58:00.507Z,13.07
2022-12-26T03:00:47.596Z,11.25
2022-12-26T03:03:38.627Z,10.00
2022-12-26T03:06:25.271Z,11.25
2022-12-26T03:09:17.978Z,10.45
2022-12-26T03:12:09.037Z,11.02
2022-12-26T03:15:08.871Z,10.77
2022-12-26T03:17:50.711Z,10.68
2022-12-26T03:20:27.114Z,10.80
2022-12-26T03:23:03.514Z,10.48
2022-12-26T03:26:05.278Z,10.85
2022-12-26T03:28:33.400Z,11.02
2022-12-26T03:31:06.059Z,10.65
2022-12-26T03:33:55.251Z,10.77
2022-12-26T03:36:47.178Z,11.15
2022-12-26T03:39:54.729Z,9.82
2022-12-26T03:43:08.081Z,10.82
2022-12-26T03:46:36.471Z,10.02
2022-12-26T03:49:48.573Z,10.18
2022-12-26T03:52:53.825Z,10.50
2022-12-26T03:55:49.344Z,10.95
2022-12-26T03:58:48.678Z,9.73
2022-12-26T04:01:56.013Z,11.05
2022-12-26T04:04:46.272Z,9.60
2022-12-26T04:07:56.208Z,10.73
2022-12-26T04:11:15.385Z,10.48
2022-12-26T04:14:20.600Z,10.88
2022-12-26T04:20:04.250Z,10.85
2022-12-26T04:22:57.909Z,12.70
2022-12-26T04:26:25.181Z,12.38
2022-12-26T04:29:11.695Z,11.05
2022-12-26T04:32:07.078Z,11.02
2022-12-26T04:35:26.503Z,10.68
2022-12-26T04:38:15.803Z,9.82
2022-12-26T04:41:08.499Z,10.13
2022-12-26T04:43:56.747Z,9.90
2022-12-26T04:46:26.279Z,10.60
2022-12-26T04:49:14.438Z,10.95
2022-12-26T04:51:42.441Z,10.68
2022-12-26T04:54:10.516Z,12.55
2022-12-26T04:56:38.734Z,13.13
2022-12-26T04:59:06.697Z,14.93
2022-12-26T05:01:53.344Z,18.95
2022-12-26T05:04:39.929Z,19.33
2022-12-26T05:07:36.364Z,21.90
2022-12-26T05:10:05.339Z,20.70
2022-12-26T05:12:33.382Z,23.23
2022-12-26T05:15:01.235Z,22.85
2022-12-26T05:17:47.834Z,23.92
2022-12-26T05:20:34.064Z,21.80
2022-12-26T05:23:21.650Z,22.90
2022-12-26T05:26:08.349Z,23.60
2022-12-26T05:28:42.278Z,25.83
2022-12-26T05:31:17.288Z,24.48
2022-12-26T05:34:03.947Z,25.45
2022-12-26T05:36:45.861Z,24.75
2022-12-26T05:39:13.960Z,24.85
2022-12-26T05:41:41.911Z,26.30
2022-12-26T05:44:10.461Z,27.70
2022-12-26T05:46:39.391Z,28.08
2022-12-26T05:49:07.495Z,28.80
2022-12-26T05:51:36.209Z,27.20
2022-12-26T05:54:04.901Z,27.15
2022-12-26T05:56:32.829Z,26.27
2022-12-26T05:59:01.911Z,30.17
2022-12-26T06:01:30.415Z,32.10
2022-12-26T06:04:00.093Z,28.25
2022-12-26T06:06:29.178Z,30.42
2022-12-26T06:08:57.679Z,32.17
2022-12-26T06:11:27.054Z,30.52
2022-12-26T06:13:56.030Z,29.48
2022-12-26T06:16:24.450Z,31.02
2022-12-26T06:18:52.360Z,32.67
2022-12-26T06:21:21.484Z,29.25
2022-12-26T06:23:50.313Z,29.33
2022-12-26T06:26:18.195Z,31.80
2022-12-26T06:28:47.783Z,27.80
2022-12-26T06:31:20.917Z,29.80
2022-12-26T06:33:51.644Z,29.08
2022-12-26T06:36:22.009Z,27.15
2022-12-26T06:38:50.184Z,29.08
2022-12-26T06:41:20.035Z,30.02
2022-12-26T06:43:49.008Z,30.73
2022-12-26T06:46:19.796Z,31.48
2022-12-26T06:48:47.945Z,31.17
2022-12-26T06:51:20.209Z,30.80
2022-12-26T06:53:52.381Z,30.95
2022-12-26T06:56:23.071Z,30.58
2022-12-26T06:58:59.231Z,30.52
2022-12-26T07:01:29.549Z,29.02
2022-12-26T07:03:58.084Z,30.55
2022-12-26T07:06:37.012Z,31.85
2022-12-26T07:09:10.954Z,30.27
2022-12-26T07:11:40.923Z,31.02
2022-12-26T07:14:09.286Z,30.75
2022-12-26T07:16:46.453Z,31.45
2022-12-26T07:19:15.047Z,30.67
2022-12-26T07:21:43.679Z,29.35
2022-12-26T07:24:19.700Z,31.65
2022-12-26T07:26:48.090Z,33.10
2022-12-26T07:29:16.642Z,31.20
2022-12-26T07:31:44.702Z,32.55
2022-12-26T07:34:12.601Z,31.20
2022-12-26T07:36:41.108Z,32.58
2022-12-26T07:39:09.351Z,32.40
2022-12-26T07:41:55.553Z,30.60
2022-12-26T07:44:23.916Z,31.90
2022-12-26T07:46:51.755Z,31.90
2022-12-26T07:49:21.127Z,34.53
2022-12-26T07:51:50.103Z,31.95
2022-12-26T07:54:18.532Z,30.48
2022-12-26T07:56:46.565Z,29.02
2022-12-26T07:59:18.164Z,30.27
2022-12-26T08:01:46.269Z,30.80
2022-12-26T08:04:14.547Z,31.10
2022-12-26T08:06:42.896Z,32.58
2022-12-26T08:09:16.216Z,32.45
2022-12-26T08:11:44.493Z,28.98
2022-12-26T08:14:14.006Z,30.65
2022-12-26T08:16:42.045Z,30.98
2022-12-26T08:19:10.979Z,29.95
2022-12-26T08:21:39.400Z,30.17
2022-12-26T08:24:07.690Z,30.02
2022-12-26T08:26:35.609Z,29.50
2022-12-26T08:29:03.487Z,29.40
2022-12-26T08:31:31.375Z,29.65
2022-12-26T08:33:59.280Z,28.00
2022-12-26T08:36:27.186Z,32.20
2022-12-26T08:38:55.116Z,30.38
2022-12-26T08:41:23.029Z,32.75
2022-12-26T08:44:25.678Z,31.45
2022-12-26T08:46:40.249Z,28.92
2022-12-26T08:49:08.093Z,29.25
2022-12-26T08:51:36.606Z,29.98
2022-12-26T08:54:04.980Z,29.55
2022-12-26T08:56:33.059Z,29.17
2022-12-26T08:59:00.992Z,29.38
2022-12-26T09:01:31.227Z,28.48
2022-12-26T09:04:02.997Z,29.80
2022-12-26T09:06:36.197Z,27.88
2022-12-26T09:09:05.740Z,27.35
2022-12-26T09:11:37.049Z,30.38
2022-12-26T09:14:07.089Z,27.38
2022-12-26T09:16:49.187Z,25.92
2022-12-26T09:19:18.972Z,28.15
2022-12-26T09:21:48.405Z,29.02
2022-12-26T09:24:18.337Z,31.05
2022-12-26T09:26:46.917Z,30.52
2022-12-26T09:29:15.052Z,27.20
2022-12-26T09:31:43.128Z,28.33
2022-12-26T09:34:11.091Z,28.65
2022-12-26T09:36:39.159Z,28.10
2022-12-26T09:39:07.771Z,30.00
2022-12-26T09:42:10.337Z,30.65
2022-12-26T09:44:56.668Z,30.52
2022-12-26T09:47:35.497Z,31.75
2022-12-26T09:50:42.955Z,30.88
2022-12-26T09:53:18.414Z,32.25
2022-12-26T09:56:06.102Z,33.22
2022-12-26T09:58:38.757Z,32.63
2022-12-26T10:01:22.095Z,30.98
2022-12-26T10:03:53.927Z,32.25
2022-12-26T10:06:24.364Z,26.75
2022-12-26T10:09:11.027Z,28.23
2022-12-26T10:12:00.937Z,26.42
2022-12-26T10:15:07.182Z,24.23
2022-12-26T10:17:53.371Z,26.38
2022-12-26T10:20:33.177Z,23.92
2022-12-26T10:23:12.923Z,26.02
2022-12-26T10:25:53.712Z,24.60
2022-12-26T10:28:47.384Z,24.50
2022-12-26T10:31:28.576Z,24.47
2022-12-26T10:34:17.191Z,26.00
2022-12-26T10:36:51.425Z,25.50
2022-12-26T10:44:45.292Z,24.88
2022-12-26T10:47:15.924Z,26.30
2022-12-26T10:49:46.386Z,27.10
2022-12-26T10:52:16.173Z,25.00
2022-12-26T10:54:48.037Z,24.90
2022-12-26T10:57:16.244Z,27.90
2022-12-26T10:59:50.341Z,27.15
2022-12-26T11:08:07.346Z,28.33
2022-12-26T11:10:38.851Z,28.25
2022-12-26T11:13:18.175Z,27.55
2022-12-26T11:15:52.558Z,28.30
2022-12-26T11:20:50.986Z,28.25
2022-12-26T11:23:31.870Z,30.35
2022-12-26T11:26:01.758Z,27.23
2022-12-26T11:28:36.188Z,26.58
2022-12-26T11:33:43.412Z,25.13
2022-12-26T11:36:19.744Z,27.02
2022-12-26T11:38:47.725Z,26.60
2022-12-26T11:41:32.315Z,25.92
2022-12-26T11:44:05.960Z,27.38
2022-12-26T11:46:57.236Z,26.10
2022-12-26T11:49:29.468Z,28.00
2022-12-26T11:52:00.324Z,28.05
2022-12-26T11:54:33.356Z,28.67
2022-12-26T11:57:16.939Z,25.58
2022-12-26T11:59:45.986Z,28.42
2022-12-26T12:02:26.018Z,26.40
2022-12-26T12:04:58.025Z,27.55
2022-12-26T12:07:34.967Z,26.58
2022-12-26T12:10:29.823Z,27.92
2022-12-26T12:15:53.807Z,27.55
2022-12-26T12:18:48.208Z,27.52
2022-12-26T12:21:48.588Z,28.13
2022-12-26T12:24:44.694Z,27.15
2022-12-26T12:27:43.101Z,26.85
2022-12-26T12:31:13.823Z,28.15
2022-12-26T12:34:23.024Z,26.83
2022-12-26T12:36:51.081Z,28.13
2022-12-26T12:40:00.636Z,28.02
2022-12-26T12:42:43.871Z,26.85
2022-12-26T12:45:34.345Z,27.52
2022-12-26T12:48:26.396Z,28.75
2022-12-26T12:51:03.017Z,28.67
2022-12-26T12:54:09.044Z,26.35
2022-12-26T12:56:49.045Z,27.98
2022-12-26T12:59:28.665Z,28.27
2022-12-26T13:02:08.533Z,27.80
2022-12-26T13:04:43.815Z,26.30
2022-12-26T13:09:48.495Z,27.75
2022-12-26T13:12:24.452Z,30.70
2022-12-26T13:14:56.707Z,26.40
2022-12-26T13:17:28.161Z,27.50
2022-12-26T13:20:13.032Z,27.70
2022-12-26T13:23:37.633Z,26.77
2022-12-26T13:26:52.270Z,28.48
2022-12-26T13:29:29.825Z,29.17
2022-12-26T13:31:59.598Z,26.00
2022-12-26T13:34:28.374Z,28.02
2022-12-26T13:36:59.152Z,26.15
2022-12-26T13:39:33.342Z,27.50
2022-12-26T13:42:29.369Z,26.85
2022-12-26T13:45:36.012Z,27.48
2022-12-26T13:48:17.122Z,26.63
2022-12-26T13:51:02.576Z,27.27
2022-12-26T13:53:34.585Z,29.00
2022-12-26T13:56:24.161Z,28.60
2022-12-26T13:59:07.415Z,27.33
2022-12-26T14:02:17.620Z,27.75
2022-12-26T14:05:32.817Z,26.70
2022-12-26T14:08:12.515Z,27.38
2022-12-26T14:10:45.604Z,26.67
2022-12-26T14:13:42.854Z,29.83
2022-12-26T14:16:24.413Z,27.52
2022-12-26T14:19:10.784Z,27.63
2022-12-26T14:22:03.801Z,25.42
2022-12-26T14:24:42.872Z,28.65
2022-12-26T14:27:33.729Z,28.48
2022-12-26T14:30:34.948Z,26.42
2022-12-26T14:33:02.803Z,28.13
2022-12-26T14:35:56.796Z,25.17
2022-12-26T14:39:03.183Z,26.65
2022-12-26T14:42:33.903Z,28.13
2022-12-26T14:45:03.771Z,26.23
2022-12-26T14:47:40.735Z,27.98
2022-12-26T14:50:50.799Z,27.58
2022-12-26T14:53:24.757Z,26.60
2022-12-26T14:58:33.126Z,25.60
2022-12-26T15:01:10.423Z,27.70
2022-12-26T15:04:02.518Z,28.08
2022-12-26T15:06:50.718Z,28.13
2022-12-26T15:09:36.972Z,29.10
2022-12-26T15:12:42.269Z,28.67
2022-12-26T15:15:31.250Z,28.20
2022-12-26T15:18:07.972Z,25.83
2022-12-26T15:20:38.663Z,26.88
2022-12-26T15:23:24.522Z,27.13
2022-12-26T15:26:37.056Z,26.77
2022-12-26T15:29:39.001Z,28.13
2022-12-26T15:32:17.809Z,27.23
2022-12-26T15:34:58.593Z,27.40
2022-12-26T15:38:12.762Z,26.88
2022-12-26T15:40:52.405Z,28.27
2022-12-26T15:43:36.553Z,29.73
2022-12-26T15:46:21.723Z,28.80
2022-12-26T15:48:49.528Z,29.35
2022-12-26T15:51:35.765Z,28.63
2022-12-26T15:54:37.298Z,28.20
2022-12-26T15:57:15.043Z,29.17
2022-12-26T16:00:10.293Z,26.85
2022-12-26T16:03:03.010Z,27.90
2022-12-26T16:05:38.263Z,28.77
2022-12-26T16:08:33.505Z,29.55
2022-12-26T16:11:19.888Z,27.38
2022-12-26T16:14:03.052Z,28.88
2022-12-26T16:16:31.113Z,27.33
2022-12-26T16:19:15.400Z,27.75
2022-12-26T16:22:06.345Z,28.38
2022-12-26T16:24:38.018Z,28.08
2022-12-26T16:27:09.411Z,29.27
2022-12-26T16:29:59.931Z,30.23
2022-12-26T16:32:39.238Z,28.35
2022-12-26T16:35:15.501Z,29.83
2022-12-26T16:37:44.178Z,28.58
2022-12-26T16:40:12.021Z,30.75
2022-12-26T16:42:43.821Z,28.83
2022-12-26T16:45:22.111Z,29.92
2022-12-26T16:47:50.425Z,29.00
2022-12-26T16:50:24.907Z,30.85
2022-12-26T16:53:14.607Z,29.42
2022-12-26T16:55:44.344Z,28.33
2022-12-26T16:58:27.244Z,28.15
2022-12-26T17:01:30.478Z,29.13
2022-12-26T17:04:03.915Z,27.30
2022-12-26T17:06:33.601Z,28.08
2022-12-26T17:09:09.309Z,29.10
2022-12-26T17:11:51.586Z,30.95
2022-12-26T17:14:28.183Z,29.00
2022-12-26T17:17:09.058Z,29.05
2022-12-26T17:19:38.257Z,28.98
2022-12-26T17:22:15.047Z,28.58
2022-12-26T17:24:43.686Z,30.77
2022-12-26T17:27:23.532Z,30.92
2022-12-26T17:29:54.430Z,32.33
2022-12-26T17:32:40.029Z,31.48
2022-12-26T17:35:13.335Z,30.60
2022-12-26T17:37:41.843Z,30.10
2022-12-26T17:40:15.941Z,29.60
2022-12-26T17:42:55.793Z,30.50
2022-12-26T17:45:27.358Z,30.55
2022-12-26T17:47:56.577Z,30.25
2022-12-26T17:50:30.420Z,34.88
2022-12-26T17:53:22.830Z,30.35
2022-12-26T17:55:52.095Z,31.98
2022-12-26T17:58:20.296Z,32.72
2022-12-26T18:00:49.249Z,30.95
2022-12-26T18:03:18.186Z,31.83
2022-12-26T18:05:47.606Z,33.33
2022-12-26T18:08:37.782Z,32.55
2022-12-26T18:11:08.698Z,29.63
2022-12-26T18:13:37.519Z,31.92
2022-12-26T18:16:06.571Z,33.13
2022-12-26T18:18:37.507Z,33.50
2022-12-26T18:21:09.003Z,33.33
2022-12-26T18:23:38.014Z,32.15
2022-12-26T18:26:22.048Z,30.25
2022-12-26T18:28:50.786Z,30.98
2022-12-26T18:31:18.998Z,30.83
2022-12-26T18:33:46.893Z,29.30
2022-12-26T18:36:16.944Z,29.48
2022-12-26T18:38:45.366Z,33.03
2022-12-26T18:41:18.150Z,32.67
2022-12-26T18:43:46.672Z,33.05
2022-12-26T18:46:25.784Z,34.38
2022-12-26T18:48:54.419Z,34.45
2022-12-26T18:51:23.052Z,35.72
2022-12-26T18:53:51.220Z,33.53
2022-12-26T18:56:21.024Z,33.40
2022-12-26T18:58:55.783Z,33.88
2022-12-26T19:01:26.963Z,33.63
2022-12-26T19:03:55.331Z,33.40
2022-12-26T19:06:26.195Z,30.85
2022-12-26T19:08:54.060Z,31.45
2022-12-26T19:11:22.237Z,32.10
2022-12-26T19:13:50.566Z,31.38
2022-12-26T19:16:18.925Z,31.80
2022-12-26T19:18:47.061Z,32.83
2022-12-26T19:21:16.404Z,32.67
2022-12-26T19:23:47.955Z,33.80
2022-12-26T19:26:18.701Z,31.95
2022-12-26T19:28:55.069Z,34.22
2022-12-26T19:31:24.417Z,34.70
2022-12-26T19:33:52.550Z,33.95
2022-12-26T19:36:20.381Z,32.03
2022-12-26T19:38:48.185Z,32.47
2022-12-26T19:41:16.148Z,33.45
2022-12-26T19:43:43.961Z,30.95
2022-12-26T19:46:15.617Z,34.78
2022-12-26T19:48:44.457Z,32.97
2022-12-26T19:51:14.602Z,33.10
2022-12-26T19:53:43.984Z,31.70
2022-12-26T19:56:16.886Z,30.48
2022-12-26T19:58:45.730Z,32.63
2022-12-26T20:01:25.529Z,30.33
2022-12-26T20:04:02.187Z,32.05
2022-12-26T20:06:33.410Z,32.13
2022-12-26T20:09:04.749Z,32.28
2022-12-26T20:11:36.002Z,32.42
2022-12-26T20:14:06.484Z,31.75
2022-12-26T20:17:04.555Z,32.20
2022-12-26T20:19:24.595Z,32.28
2022-12-26T20:21:52.770Z,33.55
2022-12-26T20:24:21.722Z,32.80
2022-12-26T20:26:50.847Z,32.80
2022-12-26T20:29:18.870Z,35.45
2022-12-26T20:31:47.762Z,33.67
2022-12-26T20:34:16.355Z,35.92
2022-12-26T20:36:44.371Z,37.40
2022-12-26T20:39:17.364Z,35.53
2022-12-26T20:41:45.694Z,35.22
2022-12-26T20:44:15.362Z,35.65
2022-12-26T20:46:44.414Z,33.65
2022-12-26T20:49:13.131Z,32.90
2022-12-26T20:51:42.866Z,37.65
2022-12-26T20:54:12.588Z,40.92
2022-12-26T20:56:42.419Z,40.97
2022-12-26T20:59:10.825Z,35.30
2022-12-26T21:01:40.104Z,33.90
2022-12-26T21:04:10.836Z,33.95
2022-12-26T21:06:40.913Z,34.15
2022-12-26T21:09:08.834Z,35.22
2022-12-26T21:11:38.637Z,35.13
2022-12-26T21:14:12.250Z,34.22
2022-12-26T21:16:49.753Z,34.15
2022-12-26T21:19:18.180Z,33.13
2022-12-26T21:21:49.579Z,34.00
2022-12-26T21:24:27.737Z,34.53
2022-12-26T21:26:56.125Z,33.35
2022-12-26T21:29:27.113Z,32.42
2022-12-26T21:31:56.217Z,33.13
2022-12-26T21:34:27.003Z,33.90
2022-12-26T21:37:14.484Z,33.53
2022-12-26T21:39:42.999Z,32.83
2022-12-26T21:42:11.225Z,32.75
2022-12-26T21:44:39.656Z,32.53
2022-12-26T21:47:10.398Z,34.47
2022-12-26T21:49:38.320Z,33.70
2022-12-26T21:52:07.136Z,32.35
2022-12-26T21:54:53.648Z,33.92
2022-12-26T21:57:21.681Z,33.50
2022-12-26T21:59:59.534Z,33.53
2022-12-26T22:02:52.148Z,34.65
2022-12-26T22:05:23.316Z,34.13
2022-12-26T22:07:58.885Z,34.75
2022-12-26T22:10:49.036Z,32.75
2022-12-26T22:13:18.503Z,34.08
2022-12-26T22:16:07.247Z,32.38
2022-12-26T22:18:37.403Z,31.70
2022-12-26T22:21:10.479Z,32.17
2022-12-26T22:23:39.947Z,33.55
2022-12-26T22:26:09.428Z,33.33
2022-12-26T22:28:38.450Z,35.47
2022-12-26T22:31:07.224Z,33.47
2022-12-26T22:33:35.067Z,32.90
2022-12-26T22:36:07.847Z,33.92
2022-12-26T22:38:37.481Z,33.75
2022-12-26T22:41:05.937Z,34.42
2022-12-26T22:43:33.820Z,35.40
2022-12-26T22:46:01.703Z,36.15
2022-12-26T22:48:29.781Z,35.92
2022-12-26T22:50:57.775Z,34.92
2022-12-26T22:53:27.439Z,34.78
2022-12-26T22:56:06.665Z,35.88
2022-12-26T22:58:34.516Z,35.03
2022-12-26T23:01:02.492Z,34.70
2022-12-26T23:03:30.378Z,33.20
2022-12-26T23:05:58.564Z,33.63
2022-12-26T23:08:28.057Z,35.17
2022-12-26T23:10:58.512Z,34.83
2022-12-26T23:13:26.886Z,35.92
2022-12-26T23:16:10.467Z,34.33
2022-12-26T23:19:05.575Z,36.80
2022-12-26T23:21:45.142Z,35.67
2022-12-26T23:24:20.195Z,34.33
2022-12-26T23:27:17.064Z,35.50
2022-12-26T23:30:03.491Z,33.53
2022-12-26T23:32:31.525Z,35.40
2022-12-26T23:34:59.485Z,33.83
2022-12-26T23:37:27.572Z,33.03
2022-12-26T23:39:55.368Z,33.65
